Time;durP1;ratioP1;P1;durP2;ratioP2;P2;SDS_P1;SDS_P2;PMS_P1;PMS_P2;Temp;Humidity;BMP_temperature;BMP_pressure;BME280_temperature;BME280_humidity;BME280_pressure;Samples;Min_cycle;Max_cycle;Signal;HPM_P1;HPM_P2
2022/01/19 00:01:05;;;;;;;7.85;3.03;;;7.60;87.90;;;;;;5073676;28;20078;-69
2022/01/19 00:03:31;;;;;;;7.85;3.35;;;7.60;88.00;;;;;;5075013;28;20037;-69
2022/01/19 00:05:57;;;;;;;11.70;4.78;;;7.60;87.90;;;;;;5052985;28;20510;-69
2022/01/19 00:08:25;;;;;;;14.77;4.35;;;7.60;87.80;;;;;;5049589;28;20049;-69
2022/01/19 00:10:51;;;;;;;11.10;4.13;;;7.60;87.80;;;;;;5057443;28;20087;-69
2022/01/19 00:13:18;;;;;;;6.78;3.72;;;7.60;87.70;;;;;;5051672;28;20412;-69
2022/01/19 00:15:44;;;;;;;14.88;5.25;;;7.60;87.80;;;;;;5059912;28;20028;-69
2022/01/19 00:18:10;;;;;;;10.80;5.40;;;7.60;87.90;;;;;;5055695;28;20120;-69
2022/01/19 00:20:37;;;;;;;9.73;4.65;;;7.60;87.70;;;;;;5054473;28;20029;-69
2022/01/19 00:23:04;;;;;;;12.82;4.95;;;7.70;87.80;;;;;;5049207;28;20036;-70
2022/01/19 00:25:31;;;;;;;13.50;5.60;;;7.70;87.90;;;;;;5048617;28;20124;-69
2022/01/19 00:27:59;;;;;;;13.25;6.05;;;7.70;87.90;;;;;;5054289;28;20036;-70
2022/01/19 00:30:26;;;;;;;15.30;6.10;;;7.70;87.30;;;;;;5060460;28;20025;-70
2022/01/19 00:32:53;;;;;;;12.90;5.38;;;7.70;87.30;;;;;;5050501;28;20076;-69
2022/01/19 00:35:20;;;;;;;10.52;5.07;;;7.70;87.50;;;;;;5053152;28;20029;-69
2022/01/19 00:37:46;;;;;;;13.23;5.35;;;7.70;87.60;;;;;;5061612;28;20025;-69
2022/01/19 00:40:14;;;;;;;16.60;5.70;;;7.70;87.70;;;;;;5053988;28;20374;-69
2022/01/19 00:42:41;;;;;;;15.80;5.82;;;7.70;87.60;;;;;;5055399;28;20070;-69
2022/01/19 00:45:08;;;;;;;13.27;5.40;;;7.70;88.00;;;;;;5056142;28;20029;-72
2022/01/19 00:47:34;;;;;;;14.77;6.00;;;7.70;88.20;;;;;;5063789;28;20031;-70
2022/01/19 00:49:59;;;;;;;11.38;5.40;;;7.70;88.30;;;;;;5054500;28;20032;-67
2022/01/19 00:52:25;;;;;;;13.32;5.50;;;7.70;88.20;;;;;;5061611;28;20123;-71
2022/01/19 00:54:52;;;;;;;12.75;5.55;;;7.70;88.30;;;;;;5052967;28;20017;-70
2022/01/19 00:57:18;;;;;;;10.10;5.93;;;7.70;88.20;;;;;;5061855;28;20029;-70
2022/01/19 00:59:44;;;;;;;15.00;5.25;;;7.70;88.20;;;;;;5064980;28;20025;-71
2022/01/19 01:02:10;;;;;;;15.63;6.32;;;7.60;88.40;;;;;;5052805;28;20118;-71
2022/01/19 01:04:36;;;;;;;10.43;5.05;;;7.70;88.40;;;;;;5053883;28;20510;-71
2022/01/19 01:07:03;;;;;;;12.90;5.65;;;7.70;88.50;;;;;;5064276;28;20913;-70
2022/01/19 01:09:29;;;;;;;11.32;5.22;;;7.70;88.40;;;;;;5054110;28;20033;-70
2022/01/19 01:12:12;;;;;;;14.75;5.82;;;7.70;88.40;;;;;;5057918;28;20038;-70
2022/01/19 01:20:11;;;;;;;15.60;6.35;;;7.70;87.80;;;;;;5055234;28;20739;-69
2022/01/19 01:22:39;;;;;;;10.60;5.22;;;7.60;88.10;;;;;;5048861;28;20558;-69
2022/01/19 01:25:06;;;;;;;18.48;6.88;;;7.60;88.20;;;;;;5052509;28;20035;-67
2022/01/19 01:27:32;;;;;;;15.48;6.90;;;7.60;88.00;;;;;;5061043;28;20125;-70
2022/01/19 01:29:58;;;;;;;14.93;7.28;;;7.50;87.90;;;;;;5054090;28;20782;-72
2022/01/19 01:32:24;;;;;;;15.02;6.25;;;7.60;88.30;;;;;;5049725;28;20139;-70
2022/01/19 01:34:51;;;;;;;17.13;6.35;;;7.60;88.40;;;;;;5052883;28;20120;-70
2022/01/19 01:37:18;;;;;;;13.82;5.65;;;7.50;87.80;;;;;;5049567;28;20037;-70
2022/01/19 01:39:44;;;;;;;13.35;5.88;;;7.50;88.00;;;;;;5057871;28;20120;-70
2022/01/19 01:42:15;;;;;;;15.27;5.70;;;7.40;88.00;;;;;;5054220;28;20124;-71
2022/01/19 01:44:47;;;;;;;17.13;5.88;;;7.50;87.80;;;;;;5056270;28;20032;-71
2022/01/19 01:47:16;;;;;;;14.55;6.43;;;7.40;87.90;;;;;;5050137;28;20075;-71
2022/01/19 01:55:15;;;;;;;21.60;6.40;;;7.40;87.40;;;;;;5059407;28;20032;-71
2022/01/19 01:57:41;;;;;;;14.75;5.78;;;7.40;87.50;;;;;;5054043;28;20024;-70
2022/01/19 02:00:12;;;;;;;20.90;5.90;;;7.40;86.60;;;;;;5051537;28;20740;-70
2022/01/19 02:02:46;;;;;;;14.60;6.00;;;7.40;86.80;;;;;;5050220;28;20123;-70
2022/01/19 02:05:14;;;;;;;15.80;5.93;;;7.40;87.00;;;;;;5051702;28;20063;-71
2022/01/19 02:10:30;;;;;;;13.40;6.05;;;7.40;87.70;;;;;;5052397;28;21056;-71
2022/01/19 02:23:49;;;;;;;15.85;5.57;;;7.30;87.40;;;;;;5070477;28;20365;-71
2022/01/19 02:26:26;;;;;;;12.88;5.72;;;7.30;87.50;;;;;;5054852;28;20031;-71
2022/01/19 02:29:16;;;;;;;14.00;5.57;;;7.30;87.50;;;;;;5053712;28;20032;-71
2022/01/19 02:42:51;;;;;;;14.70;6.57;;;7.40;87.70;;;;;;5066583;28;20037;-71
2022/01/19 02:50:27;;;;;;;14.65;5.90;;;7.40;87.80;;;;;;5054414;28;20040;-71
2022/01/19 02:52:53;;;;;;;13.05;5.93;;;7.40;87.80;;;;;;5054877;28;20101;-71
2022/01/19 02:55:19;;;;;;;17.60;6.60;;;7.30;87.20;;;;;;5066940;28;20028;-71
2022/01/19 02:57:46;;;;;;;12.60;6.25;;;7.30;87.50;;;;;;5051755;28;20039;-72
2022/01/19 03:08:46;;;;;;;13.35;5.53;;;7.30;87.10;;;;;;5074050;28;20025;-71
2022/01/19 03:11:15;;;;;;;13.15;5.68;;;7.20;87.40;;;;;;5048649;28;20109;-71
2022/01/19 03:13:41;;;;;;;13.02;5.20;;;7.20;87.60;;;;;;5047996;28;20032;-71
2022/01/19 03:16:07;;;;;;;13.32;5.97;;;7.20;87.70;;;;;;5048075;28;20021;-71
2022/01/19 03:18:33;;;;;;;12.35;5.38;;;7.30;87.80;;;;;;5056082;28;20039;-71
2022/01/19 03:20:59;;;;;;;12.98;5.43;;;7.30;87.80;;;;;;5051751;28;20643;-71
2022/01/19 03:23:25;;;;;;;14.80;6.03;;;7.30;87.60;;;;;;5048533;28;20045;-72
2022/01/19 03:25:53;;;;;;;12.95;5.60;;;7.30;87.60;;;;;;5046665;28;20101;-71
2022/01/19 03:28:18;;;;;;;15.07;5.30;;;7.30;87.90;;;;;;5052318;28;20112;-71
2022/01/19 03:30:46;;;;;;;17.38;5.30;;;7.30;88.00;;;;;;5054511;28;20768;-71
2022/01/19 03:33:12;;;;;;;17.77;5.22;;;7.30;88.00;;;;;;5049863;28;20068;-71
2022/01/19 03:35:38;;;;;;;14.88;4.93;;;7.30;87.70;;;;;;5049060;28;20028;-71
2022/01/19 03:38:06;;;;;;;12.10;5.28;;;7.30;87.70;;;;;;5044549;28;20060;-71
2022/01/19 03:40:32;;;;;;;12.93;4.97;;;7.30;87.60;;;;;;5046112;28;20037;-71
2022/01/19 03:42:58;;;;;;;12.43;4.88;;;7.30;87.70;;;;;;5048292;28;20504;-71
2022/01/19 03:45:51;;;;;;;12.02;4.70;;;7.20;87.30;;;;;;5058074;28;20028;-71
2022/01/19 03:48:38;;;;;;;10.10;4.40;;;7.20;87.50;;;;;;5053131;28;20442;-71
2022/01/19 03:51:05;;;;;;;9.27;4.72;;;7.30;87.70;;;;;;5056693;28;20040;-71
2022/01/19 03:53:31;;;;;;;12.85;5.85;;;7.20;87.70;;;;;;5042939;28;20032;-71
2022/01/19 03:55:57;;;;;;;9.95;4.03;;;7.20;87.70;;;;;;5049728;28;20029;-71
2022/01/19 03:58:23;;;;;;;15.23;5.13;;;7.20;87.60;;;;;;5045857;28;20029;-71
2022/01/19 04:00:54;;;;;;;14.48;4.68;;;7.30;87.70;;;;;;5052811;28;20029;-71
2022/01/19 04:03:25;;;;;;;10.80;4.80;;;7.20;87.40;;;;;;5047953;28;20043;-71
2022/01/19 04:08:45;;;;;;;7.47;3.95;;;7.20;87.40;;;;;;5036078;28;20534;-71
2022/01/19 04:11:13;;;;;;;11.07;4.75;;;7.20;87.60;;;;;;5049918;28;20040;-71
2022/01/19 04:13:58;;;;;;;14.90;4.90;;;7.30;87.50;;;;;;5059529;28;20032;-71
2022/01/19 04:16:25;;;;;;;14.80;5.23;;;7.30;87.00;;;;;;5051861;28;20033;-71
2022/01/19 04:18:55;;;;;;;12.75;4.97;;;7.30;86.90;;;;;;5059894;28;20574;-72
2022/01/19 04:21:20;;;;;;;15.85;5.32;;;7.30;87.30;;;;;;5053091;28;20033;-71
2022/01/19 04:23:48;;;;;;;12.77;5.13;;;7.30;87.50;;;;;;5061778;28;20031;-71
2022/01/19 04:26:13;;;;;;;15.10;6.20;;;7.30;87.20;;;;;;5072121;28;20042;-71
2022/01/19 04:28:41;;;;;;;15.60;7.10;;;7.30;87.20;;;;;;5058253;28;20036;-71
2022/01/19 04:31:07;;;;;;;11.77;5.78;;;7.30;87.20;;;;;;5047039;28;20021;-71
2022/01/19 04:33:33;;;;;;;16.58;5.65;;;7.30;87.20;;;;;;5057735;28;20061;-71
2022/01/19 04:36:19;;;;;;;15.07;6.10;;;7.30;87.10;;;;;;5050633;28;20393;-71
2022/01/19 05:05:13;;;;;;;15.85;7.03;;;7.10;87.10;;;;;;5062149;28;20138;-71
2022/01/19 05:15:39;;;;;;;12.85;6.03;;;7.20;87.10;;;;;;5063198;28;20025;-71
2022/01/19 05:18:09;;;;;;;14.23;6.97;;;7.20;87.30;;;;;;5050202;28;20499;-71
2022/01/19 05:20:35;;;;;;;11.35;6.28;;;7.20;87.60;;;;;;5049073;28;20151;-71
2022/01/19 05:23:01;;;;;;;11.45;5.85;;;7.20;87.70;;;;;;5047994;28;20647;-72
2022/01/19 05:25:27;;;;;;;15.35;7.20;;;7.20;87.80;;;;;;5054623;28;20676;-71
2022/01/19 05:28:18;;;;;;;16.13;6.65;;;7.20;88.10;;;;;;5052817;28;20041;-71
2022/01/19 05:30:44;;;;;;;15.75;6.50;;;7.20;88.00;;;;;;5058519;28;20028;-71
2022/01/19 05:33:10;;;;;;;14.65;5.97;;;7.20;87.70;;;;;;5051996;28;20025;-71
2022/01/19 05:35:36;;;;;;;17.65;7.13;;;7.20;87.60;;;;;;5047083;28;20052;-71
2022/01/19 05:38:05;;;;;;;13.10;6.75;;;7.20;87.70;;;;;;5049550;28;20047;-71
2022/01/19 05:40:49;;;;;;;13.32;6.47;;;7.20;87.60;;;;;;5054560;28;20028;-71
2022/01/19 05:43:15;;;;;;;13.00;6.55;;;7.20;87.40;;;;;;5055117;28;20075;-71
2022/01/19 05:45:41;;;;;;;15.93;6.55;;;7.20;87.50;;;;;;5057949;28;20485;-71
2022/01/19 05:48:14;;;;;;;10.93;5.70;;;7.10;87.70;;;;;;5056762;28;20029;-71
2022/01/19 05:50:43;;;;;;;16.27;6.78;;;7.10;87.90;;;;;;5055970;28;20040;-71
2022/01/19 05:53:13;;;;;;;16.80;6.28;;;7.10;87.00;;;;;;5048577;28;20065;-70
2022/01/19 05:55:39;;;;;;;11.52;5.00;;;7.00;87.10;;;;;;5052119;28;20081;-70
2022/01/19 05:58:06;;;;;;;18.20;7.25;;;7.00;87.30;;;;;;5051463;28;20029;-70
2022/01/19 06:00:32;;;;;;;17.83;7.93;;;7.00;87.50;;;;;;5047154;28;20036;-70
2022/01/19 06:02:57;;;;;;;13.45;6.53;;;7.10;87.40;;;;;;5053406;28;20047;-70
2022/01/19 06:05:43;;;;;;;13.60;6.28;;;7.10;86.60;;;;;;5055018;28;20751;-70
2022/01/19 06:11:00;;;;;;;11.55;5.38;;;7.10;87.40;;;;;;5067680;28;20110;-70
2022/01/19 06:13:26;;;;;;;8.52;5.00;;;7.10;87.60;;;;;;5046613;28;20571;-70
2022/01/19 06:15:52;;;;;;;11.00;4.75;;;7.10;87.60;;;;;;5053704;28;20070;-70
2022/01/19 06:18:18;;;;;;;7.68;4.53;;;7.10;87.50;;;;;;5050866;28;20036;-70
2022/01/19 06:20:45;;;;;;;14.73;5.82;;;7.20;88.00;;;;;;5051532;28;20123;-70
2022/01/19 06:23:12;;;;;;;12.75;5.30;;;7.20;87.10;;;;;;5052444;28;20104;-70
2022/01/19 06:25:51;;;;;;;14.50;5.55;;;7.20;87.10;;;;;;5052509;28;20131;-70
2022/01/19 06:28:17;;;;;;;14.65;5.70;;;7.10;87.10;;;;;;5060813;28;20119;-70
2022/01/19 06:30:42;;;;;;;16.02;5.13;;;7.00;86.80;;;;;;5058329;28;20039;-70
2022/01/19 06:33:08;;;;;;;15.20;5.00;;;7.00;86.80;;;;;;5050009;28;20020;-70
2022/01/19 06:35:35;;;;;;;17.48;5.00;;;6.90;86.70;;;;;;5049880;28;20031;-70
2022/01/19 06:38:12;;;;;;;12.27;4.70;;;6.80;86.90;;;;;;5050885;28;20140;-70
2022/01/19 06:40:49;;;;;;;12.68;4.88;;;6.70;86.90;;;;;;5047256;28;20025;-70
2022/01/19 06:43:15;;;;;;;13.00;4.57;;;6.60;87.50;;;;;;5051871;28;20039;-70
2022/01/19 06:45:41;;;;;;;11.05;4.13;;;6.60;87.70;;;;;;5050418;28;20024;-70
2022/01/19 06:48:07;;;;;;;10.40;4.03;;;6.50;87.40;;;;;;5055348;28;20040;-70
2022/01/19 06:50:33;;;;;;;15.05;4.97;;;6.50;88.00;;;;;;5052675;28;20033;-70
2022/01/19 06:52:59;;;;;;;13.20;4.32;;;6.40;88.20;;;;;;5054569;28;20017;-70
2022/01/19 06:55:25;;;;;;;14.43;4.72;;;6.40;88.50;;;;;;5048877;28;20063;-70
2022/01/19 06:57:54;;;;;;;11.55;4.53;;;6.30;88.80;;;;;;5063571;28;20025;-70
2022/01/19 07:00:32;;;;;;;9.68;3.97;;;6.30;88.70;;;;;;5049070;28;20113;-70
2022/01/19 07:03:14;;;;;;;6.50;3.95;;;6.20;88.60;;;;;;5054865;28;20020;-70
2022/01/19 07:05:48;;;;;;;11.15;4.03;;;6.20;88.90;;;;;;5053072;28;20119;-70
2022/01/19 07:08:29;;;;;;;9.70;3.72;;;6.10;88.90;;;;;;5051466;28;20814;-70
2022/01/19 07:10:55;;;;;;;7.78;3.80;;;6.00;89.50;;;;;;5051691;28;20077;-70
2022/01/19 07:13:21;;;;;;;10.00;3.80;;;6.00;89.60;;;;;;5043987;28;20028;-70
2022/01/19 07:15:48;;;;;;;10.82;4.25;;;5.90;89.60;;;;;;5051180;28;20060;-70
2022/01/19 07:18:14;;;;;;;9.68;4.32;;;5.80;90.00;;;;;;5048885;28;20392;-70
2022/01/19 07:20:41;;;;;;;12.85;4.70;;;5.70;90.10;;;;;;5052944;28;20048;-70
2022/01/19 07:23:07;;;;;;;8.98;3.90;;;5.70;90.10;;;;;;5047756;28;20112;-70
2022/01/19 07:25:32;;;;;;;12.15;4.18;;;5.60;90.20;;;;;;5047443;28;20115;-68
2022/01/19 07:27:58;;;;;;;13.57;5.20;;;5.50;90.30;;;;;;5046410;28;20021;-70
2022/01/19 07:30:26;;;;;;;11.43;4.35;;;5.50;90.30;;;;;;5054825;28;20834;-70
2022/01/19 07:32:52;;;;;;;15.45;5.78;;;5.40;90.40;;;;;;5035210;28;20124;-69
2022/01/19 07:35:20;;;;;;;20.17;8.52;;;5.30;90.60;;;;;;5055846;28;20029;-69
2022/01/19 07:37:50;;;;;;;12.70;5.22;;;5.30;91.20;;;;;;5051461;28;20060;-73
2022/01/19 07:40:17;;;;;;;13.80;5.13;;;5.30;90.80;;;;;;5043786;28;20033;-69
2022/01/19 07:42:44;;;;;;;10.68;4.15;;;5.30;90.80;;;;;;5049391;28;20039;-69
2022/01/19 07:45:42;;;;;;;10.73;4.63;;;5.20;90.80;;;;;;5053464;28;20044;-69
2022/01/19 07:48:14;;;;;;;9.52;4.88;;;5.20;90.90;;;;;;5048837;28;20148;-68
2022/01/19 07:51:18;;;;;;;11.38;4.50;;;5.10;91.20;;;;;;5014621;28;20041;-69
2022/01/19 07:53:52;;;;;;;11.23;5.20;;;5.10;91.20;;;;;;5007090;28;20026;-68
2022/01/19 07:56:20;;;;;;;11.00;5.13;;;5.20;90.90;;;;;;5035952;28;20045;-70
2022/01/19 07:59:05;;;;;;;15.70;4.68;;;5.20;90.90;;;;;;5049338;28;20614;-71
2022/01/19 08:02:07;;;;;;;12.32;5.22;;;5.20;90.80;;;;;;5048749;28;20052;-70
2022/01/19 08:04:51;;;;;;;13.95;5.68;;;5.20;91.00;;;;;;5062685;28;20185;-70
2022/01/19 08:07:21;;;;;;;12.57;5.25;;;5.20;90.90;;;;;;5058683;28;20047;-69
2022/01/19 08:09:50;;;;;;;14.10;5.45;;;5.20;90.70;;;;;;5054446;28;20036;-69
2022/01/19 08:12:16;;;;;;;10.73;4.68;;;5.20;90.70;;;;;;5057018;28;20032;-68
2022/01/19 08:14:44;;;;;;;11.35;5.10;;;5.30;91.10;;;;;;5061154;28;20021;-68
2022/01/19 08:17:12;;;;;;;10.15;5.15;;;5.40;90.90;;;;;;5050448;28;20528;-68
2022/01/19 08:19:40;;;;;;;11.75;5.50;;;5.40;90.80;;;;;;5051118;28;20025;-68
2022/01/19 08:22:06;;;;;;;9.43;4.80;;;5.50;90.50;;;;;;5074479;28;20116;-67
2022/01/19 08:24:39;;;;;;;12.02;5.53;;;5.50;90.50;;;;;;5053985;28;20472;-70
2022/01/19 08:27:05;;;;;;;11.05;5.43;;;5.60;90.20;;;;;;5045496;28;20050;-70
2022/01/19 08:29:39;;;;;;;11.60;5.05;;;5.60;90.00;;;;;;5061269;28;20428;-70
2022/01/19 08:32:12;;;;;;;19.50;8.23;;;5.70;90.20;;;;;;5050620;28;20040;-70
2022/01/19 08:35:06;;;;;;;12.10;5.65;;;5.80;90.00;;;;;;5034160;28;20036;-70
2022/01/19 08:37:51;;;;;;;14.93;5.80;;;5.80;89.90;;;;;;5053259;28;20101;-70
2022/01/19 08:40:16;;;;;;;10.95;5.05;;;6.00;88.70;;;;;;5052615;28;20825;-72
2022/01/19 08:42:54;;;;;;;10.88;5.03;;;5.90;87.80;;;;;;5042727;28;20024;-70
2022/01/19 08:45:20;;;;;;;10.95;4.70;;;5.80;88.60;;;;;;5050827;28;20025;-70
2022/01/19 08:47:46;;;;;;;10.93;5.47;;;5.80;89.20;;;;;;5052196;28;20067;-70
2022/01/19 08:50:35;;;;;;;13.40;5.30;;;5.80;88.70;;;;;;5042750;28;20028;-71
2022/01/19 08:53:08;;;;;;;12.77;5.72;;;5.90;88.90;;;;;;5059724;28;20571;-72
2022/01/19 08:55:48;;;;;;;9.40;5.10;;;6.00;88.60;;;;;;5048300;28;20710;-69
2022/01/19 08:58:14;;;;;;;9.68;5.40;;;6.20;87.70;;;;;;5052997;28;20025;-69
2022/01/19 09:00:44;;;;;;;9.63;5.40;;;6.20;87.30;;;;;;5053570;28;20608;-69
2022/01/19 09:03:11;;;;;;;9.10;4.88;;;6.30;87.00;;;;;;5052217;28;20552;-69
2022/01/19 09:05:37;;;;;;;9.25;4.78;;;6.40;86.90;;;;;;5044349;28;20048;-69
2022/01/19 09:08:03;;;;;;;9.73;5.40;;;6.60;86.00;;;;;;5056879;28;20052;-68
2022/01/19 09:10:29;;;;;;;12.30;4.82;;;6.80;85.10;;;;;;5055837;28;20037;-69
2022/01/19 09:12:55;;;;;;;7.57;4.97;;;6.90;83.70;;;;;;5052402;28;20071;-69
2022/01/19 09:15:22;;;;;;;13.05;5.78;;;6.80;85.10;;;;;;5061048;28;20043;-69
2022/01/19 09:17:48;;;;;;;10.40;5.28;;;7.00;84.90;;;;;;5053478;28;20028;-68
2022/01/19 09:20:15;;;;;;;10.10;4.85;;;7.20;83.50;;;;;;5068447;28;20036;-69
2022/01/19 09:22:42;;;;;;;8.65;4.80;;;7.40;82.00;;;;;;5053693;28;20024;-70
2022/01/19 09:25:09;;;;;;;12.73;6.07;;;8.10;80.30;;;;;;5050849;28;20036;-68
2022/01/19 09:27:37;;;;;;;8.70;5.40;;;8.90;75.40;;;;;;5057077;28;20032;-69
2022/01/19 09:30:06;;;;;;;8.93;5.53;;;9.10;73.20;;;;;;5052840;28;20037;-69
2022/01/19 09:32:31;;;;;;;8.43;4.55;;;8.90;73.20;;;;;;5054471;28;20102;-70
2022/01/19 09:35:06;;;;;;;8.63;5.57;;;9.00;73.80;;;;;;5048943;28;20580;-71
2022/01/19 09:37:32;;;;;;;13.82;7.30;;;9.20;73.40;;;;;;5053718;28;20040;-73
2022/01/19 09:39:58;;;;;;;8.93;5.30;;;9.70;73.10;;;;;;5066330;28;20048;-68
2022/01/19 09:42:24;;;;;;;8.45;5.30;;;9.80;69.50;;;;;;5052606;28;20752;-70
2022/01/19 09:44:50;;;;;;;10.93;5.97;;;9.20;70.80;;;;;;5051938;28;20021;-69
2022/01/19 09:47:15;;;;;;;8.32;5.53;;;8.60;73.70;;;;;;5051595;28;20556;-70
2022/01/19 09:49:42;;;;;;;10.73;5.43;;;8.30;76.10;;;;;;5051382;28;20040;-70
2022/01/19 09:52:08;;;;;;;8.75;5.43;;;8.50;75.50;;;;;;5070397;28;20029;-69
2022/01/19 09:54:34;;;;;;;11.55;5.22;;;8.50;75.40;;;;;;5056314;28;20876;-69
2022/01/19 09:57:00;;;;;;;8.88;5.97;;;8.40;76.00;;;;;;5050226;28;20033;-69
2022/01/19 09:59:26;;;;;;;10.68;6.05;;;8.30;75.30;;;;;;5050091;28;20032;-69
2022/01/19 10:02:04;;;;;;;9.77;5.93;;;7.70;76.50;;;;;;5056906;28;20025;-69
2022/01/19 10:04:32;;;;;;;10.32;6.72;;;7.00;79.40;;;;;;5056433;28;20036;-71
2022/01/19 10:07:18;;;;;;;11.35;6.50;;;6.70;81.80;;;;;;5054377;28;20051;-69
2022/01/19 10:09:49;;;;;;;11.02;6.63;;;6.60;82.30;;;;;;5052636;28;20120;-69
2022/01/19 10:18:13;;;;;;;11.38;6.88;;;6.30;84.60;;;;;;5049619;28;20346;-69
2022/01/19 10:20:40;;;;;;;10.75;7.05;;;6.30;84.60;;;;;;5051224;28;20048;-71
2022/01/19 10:23:36;;;;;;;10.40;6.45;;;6.40;84.10;;;;;;5054672;28;20512;-70
2022/01/19 10:26:07;;;;;;;9.90;6.20;;;6.30;84.20;;;;;;5052191;28;20036;-68
2022/01/19 10:29:02;;;;;;;12.82;7.20;;;6.30;84.70;;;;;;5070325;28;20040;-71
2022/01/19 10:31:30;;;;;;;9.77;6.63;;;6.30;83.60;;;;;;5051067;28;20047;-69
2022/01/19 10:34:22;;;;;;;10.82;7.50;;;6.30;84.60;;;;;;5053294;28;20079;-70
2022/01/19 10:36:55;;;;;;;10.05;6.43;;;6.30;84.80;;;;;;5060917;28;20500;-71
2022/01/19 10:39:23;;;;;;;10.23;7.25;;;6.20;84.10;;;;;;5054816;28;20068;-70
2022/01/19 10:42:02;;;;;;;10.95;7.40;;;6.10;84.40;;;;;;5064193;28;20481;-69
2022/01/19 10:44:30;;;;;;;15.02;7.30;;;6.00;85.30;;;;;;5050046;28;20682;-69
2022/01/19 10:46:55;;;;;;;12.15;7.43;;;5.90;85.20;;;;;;5056307;28;20059;-70
2022/01/19 10:49:21;;;;;;;9.63;7.10;;;5.90;85.80;;;;;;5050431;28;20143;-69
2022/01/19 10:51:48;;;;;;;11.10;6.90;;;5.90;85.90;;;;;;5049906;28;20055;-68
2022/01/19 10:54:21;;;;;;;10.95;6.95;;;5.90;84.30;;;;;;5050758;28;20045;-69
2022/01/19 10:56:54;;;;;;;9.50;6.30;;;5.90;85.60;;;;;;5048843;28;20038;-69
2022/01/19 10:59:26;;;;;;;9.52;6.80;;;5.90;85.00;;;;;;5065783;28;20036;-70
2022/01/19 11:01:56;;;;;;;11.82;6.47;;;5.90;85.30;;;;;;5054506;28;20627;-69
2022/01/19 11:04:33;;;;;;;10.50;7.40;;;5.90;85.40;;;;;;5051283;28;20028;-65
2022/01/19 11:07:04;;;;;;;10.40;7.32;;;5.80;85.40;;;;;;5047257;28;20028;-66
2022/01/19 11:09:34;;;;;;;11.32;7.15;;;5.70;85.70;;;;;;5045297;28;20036;-66
2022/01/19 11:12:08;;;;;;;10.50;7.85;;;5.70;85.70;;;;;;5065293;28;20107;-67
2022/01/19 11:14:37;;;;;;;9.85;8.07;;;5.50;85.40;;;;;;5059473;28;20033;-69
2022/01/19 11:17:04;;;;;;;11.13;7.50;;;5.50;86.50;;;;;;5047902;28;20025;-70
2022/01/19 11:19:30;;;;;;;16.75;10.52;;;5.50;86.40;;;;;;5052707;28;20061;-72
2022/01/19 11:22:29;;;;;;;24.63;13.55;;;5.60;86.50;;;;;;5055159;28;20082;-71
2022/01/19 11:25:13;;;;;;;18.55;10.60;;;5.60;86.10;;;;;;5044506;28;20037;-69
2022/01/19 11:27:44;;;;;;;10.30;7.10;;;5.70;85.90;;;;;;5053115;28;20416;-69
2022/01/19 11:30:16;;;;;;;10.10;7.50;;;5.70;84.40;;;;;;5059978;28;20037;-69
2022/01/19 11:32:43;;;;;;;10.45;7.05;;;5.70;84.90;;;;;;5048155;28;20127;-69
2022/01/19 11:35:28;;;;;;;9.40;7.18;;;5.70;84.90;;;;;;5049477;28;20025;-67
2022/01/19 11:37:54;;;;;;;10.50;7.32;;;5.60;84.70;;;;;;5065581;28;20033;-69
2022/01/19 11:40:20;;;;;;;16.77;10.88;;;5.50;86.00;;;;;;5053269;28;20098;-69
2022/01/19 11:42:46;;;;;;;12.15;8.43;;;5.40;86.30;;;;;;5054905;28;20042;-73
2022/01/19 11:45:34;;;;;;;9.75;8.10;;;5.50;86.40;;;;;;5046354;28;20109;-70
2022/01/19 11:48:15;;;;;;;12.48;9.07;;;5.50;86.00;;;;;;5046225;28;20878;-69
2022/01/19 11:50:41;;;;;;;14.45;9.35;;;5.50;86.70;;;;;;5052723;28;20115;-70
2022/01/19 11:53:10;;;;;;;10.48;7.43;;;5.60;86.00;;;;;;5046811;28;20025;-67
2022/01/19 11:55:39;;;;;;;9.35;7.93;;;5.60;85.90;;;;;;5047898;28;20028;-69
2022/01/19 11:58:20;;;;;;;10.18;7.85;;;5.50;86.00;;;;;;5051354;28;20647;-68
2022/01/19 12:00:48;;;;;;;10.85;8.68;;;5.50;86.40;;;;;;5053284;28;20753;-70
2022/01/19 12:03:32;;;;;;;10.68;8.07;;;5.50;86.60;;;;;;5051710;28;20067;-68
2022/01/19 12:05:59;;;;;;;10.48;7.63;;;5.60;86.50;;;;;;5047404;28;20044;-69
2022/01/19 12:08:30;;;;;;;9.80;7.57;;;5.60;86.40;;;;;;5052081;28;20484;-69
2022/01/19 12:11:01;;;;;;;8.90;7.70;;;5.70;86.50;;;;;;5057300;28;20029;-67
2022/01/19 12:13:58;;;;;;;11.27;8.07;;;5.60;85.60;;;;;;5051764;28;20175;-67
2022/01/19 12:19:08;;;;;;;9.27;7.55;;;5.40;86.20;;;;;;5045510;28;20020;-66
2022/01/19 12:21:36;;;;;;;10.35;7.72;;;5.30;86.20;;;;;;5049660;28;20043;-67
2022/01/19 12:24:24;;;;;;;14.07;9.80;;;5.30;87.00;;;;;;5048175;28;20419;-68
2022/01/19 12:27:10;;;;;;;10.90;7.80;;;5.20;87.60;;;;;;5052560;28;20528;-68
2022/01/19 12:29:36;;;;;;;12.38;7.90;;;5.10;88.00;;;;;;5042418;28;20028;-68
2022/01/19 12:32:15;;;;;;;11.50;8.43;;;5.30;87.60;;;;;;5061972;28;20036;-67
2022/01/19 12:35:07;;;;;;;10.75;8.05;;;5.40;86.80;;;;;;5052688;28;20028;-66
2022/01/19 12:37:41;;;;;;;12.00;7.93;;;5.40;87.00;;;;;;5065952;28;20025;-67
2022/01/19 12:40:29;;;;;;;10.63;8.00;;;5.40;87.60;;;;;;5053422;28;20526;-70
2022/01/19 12:43:30;;;;;;;8.88;7.28;;;5.60;86.40;;;;;;5053903;28;20112;-65
2022/01/19 12:46:00;;;;;;;8.98;6.90;;;5.60;86.80;;;;;;5050848;28;20242;-65
2022/01/19 12:48:35;;;;;;;9.90;6.70;;;5.60;86.10;;;;;;5064842;28;20093;-66
2022/01/19 12:51:01;;;;;;;24.95;15.07;;;5.50;86.70;;;;;;5047538;28;20036;-66
2022/01/19 12:53:30;;;;;;;13.20;7.50;;;5.40;87.10;;;;;;5054844;28;20035;-66
2022/01/19 12:56:03;;;;;;;9.48;6.75;;;5.50;87.30;;;;;;5055410;28;20032;-66
2022/01/19 12:58:35;;;;;;;7.20;5.82;;;5.40;87.40;;;;;;5055817;28;20034;-68
2022/01/19 13:01:05;;;;;;;10.52;6.30;;;5.30;87.40;;;;;;5053198;28;20067;-66
2022/01/19 13:03:34;;;;;;;6.85;5.43;;;5.10;88.50;;;;;;5053927;28;20032;-67
2022/01/19 13:06:05;;;;;;;8.35;5.88;;;5.00;88.90;;;;;;5053009;28;20479;-67
2022/01/19 13:08:36;;;;;;;6.68;5.40;;;5.10;88.50;;;;;;5053296;28;20852;-66
2022/01/19 13:11:17;;;;;;;7.97;6.07;;;5.20;88.60;;;;;;5053688;28;20063;-67
2022/01/19 13:13:54;;;;;;;8.05;5.88;;;5.20;88.70;;;;;;5050806;28;20567;-67
2022/01/19 13:16:32;;;;;;;8.23;5.53;;;5.30;88.30;;;;;;5052611;28;20111;-66
2022/01/19 13:19:08;;;;;;;9.25;5.88;;;5.40;88.20;;;;;;5055276;28;20105;-66
2022/01/19 13:21:36;;;;;;;7.55;5.38;;;5.40;87.80;;;;;;5059843;28;20090;-67
2022/01/19 13:24:08;;;;;;;9.27;5.32;;;5.40;87.70;;;;;;5059420;28;20028;-66
2022/01/19 13:26:55;;;;;;;7.05;5.10;;;5.50;87.90;;;;;;5054820;28;20115;-67
2022/01/19 13:29:25;;;;;;;;;;;5.60;87.50;;;;;;5055549;28;20036;-65
2022/01/19 13:32:01;;;;;;;7.38;5.63;;;5.70;87.10;;;;;;5050341;28;19913;-67
2022/01/19 13:34:29;;;;;;;8.38;5.13;;;5.70;86.90;;;;;;5050079;28;20033;-65
2022/01/19 13:37:00;;;;;;;7.38;5.00;;;5.80;86.70;;;;;;5047969;28;20048;-61
2022/01/19 13:39:28;;;;;;;6.93;4.85;;;5.70;86.40;;;;;;5054000;28;20602;-67
2022/01/19 13:41:57;;;;;;;5.63;4.60;;;5.70;87.20;;;;;;5067339;28;20037;-68
2022/01/19 13:44:44;;;;;;;7.40;4.50;;;5.70;87.20;;;;;;5048145;28;20037;-69
2022/01/19 13:47:15;;;;;;;8.90;5.07;;;5.90;87.10;;;;;;5051767;28;20037;-68
2022/01/19 13:49:51;;;;;;;9.15;4.90;;;6.00;85.90;;;;;;5062495;28;20071;-68
2022/01/19 13:52:24;;;;;;;6.20;4.90;;;5.90;86.00;;;;;;5064088;28;20024;-66
2022/01/19 13:54:50;;;;;;;6.63;5.00;;;5.90;85.90;;;;;;5052927;28;20336;-67
2022/01/19 13:57:26;;;;;;;6.57;4.90;;;5.90;86.10;;;;;;5052875;28;20528;-67
2022/01/19 13:59:52;;;;;;;7.05;4.85;;;6.00;86.70;;;;;;5056222;28;20437;-66
2022/01/19 14:02:20;;;;;;;6.07;4.90;;;6.00;86.40;;;;;;5053634;28;20032;-68
2022/01/19 14:04:53;;;;;;;6.32;4.82;;;6.00;86.20;;;;;;5051064;28;20575;-69
2022/01/19 14:07:19;;;;;;;5.57;4.43;;;6.00;86.40;;;;;;5053297;28;20036;-67
2022/01/19 14:09:46;;;;;;;5.85;4.63;;;6.00;86.60;;;;;;5050610;28;20669;-68
2022/01/19 14:12:16;;;;;;;6.07;4.57;;;6.00;86.60;;;;;;5050803;28;20036;-68
2022/01/19 14:14:48;;;;;;;8.20;4.57;;;6.00;86.50;;;;;;5052823;28;20039;-67
2022/01/19 14:17:25;;;;;;;7.03;4.60;;;6.00;87.60;;;;;;5066064;28;20040;-68
2022/01/19 14:19:52;;;;;;;8.10;4.97;;;6.00;87.00;;;;;;5058536;28;20028;-68
2022/01/19 14:22:21;;;;;;;7.07;4.60;;;6.10;86.30;;;;;;5067921;28;20094;-69
2022/01/19 14:24:47;;;;;;;7.35;4.55;;;6.00;86.70;;;;;;5051483;28;20400;-67
2022/01/19 14:27:13;;;;;;;6.45;4.63;;;6.00;87.90;;;;;;5049345;28;20037;-67
2022/01/19 14:29:55;;;;;;;6.13;4.85;;;6.00;87.80;;;;;;5056177;28;20820;-68
2022/01/19 14:32:32;;;;;;;7.15;5.20;;;6.20;86.80;;;;;;5050756;28;20036;-66
2022/01/19 14:34:57;;;;;;;9.65;5.57;;;6.20;86.30;;;;;;5053994;28;20067;-66
2022/01/19 14:37:23;;;;;;;11.85;5.90;;;6.20;86.90;;;;;;5063062;28;20124;-66
2022/01/19 14:39:54;;;;;;;5.25;4.07;;;6.30;87.10;;;;;;5051507;28;20028;-68
2022/01/19 14:42:25;;;;;;;5.45;4.15;;;6.30;86.90;;;;;;5049425;28;20464;-67
2022/01/19 14:45:18;;;;;;;5.00;3.92;;;6.40;87.20;;;;;;5051160;28;20106;-69
2022/01/19 14:47:38;;;;;;;6.90;4.85;;;6.50;86.40;;;;;;5054258;28;20050;-67